Hickory Regional Airport Hickory US
ICAO: KHKY
IATA: HKY
Category: Medium
Scheduled Services: No

Elevation: 1190 ft
TransAlt. 18000 ft.

Airport Communications:
ASOS:118.325
CLNC DEL:121.7
ATLANTA CNTR:125.15
CTAF:128.15
GND:121.7
RALEIGH RDO:122.2
TWR:128.15

KHKY Zoom In..

Runways:

(A) RW 01 length 4400 ft width 150 ft
---- / hdg 14

(B) RW 06 length 6400 ft width 150 ft
---- / hdg 61

(C) RW 19 length 4400 ft width 150 ft
---- / hdg 194

(D) RW 24 length 6400 ft width 150 ft
ILS 108.70 / hdg 241

Location; KHKY
Day. 19 / Time. 19.53 Zulu
* Altimeter: 30.08
* Temperature: 26° c. 78.8°f.
* Wind from: 330° Speed 04 kn.
Dewpoint: 17° c.
Visibility: 10 Statute Miles.
Clouds: Overcast 6500 ft.

KHKY 191953Z 33004KT 10SM OVC065 26/17 A3008 RMK AO2 SLP164 T02560167


Wind From 330°
Speed 04 kn.

 
 
jpsmedia.com for Web Design worldairports.se 2018   terms of use